Aeroporto :
LOGIN :

Iscrizione | Disclaimer

   EN    FR    IT 

 










Sommario :    VFR   VFR Marginale   IFR   IFR Intensivo   IFR Molto Intensivo
Visibilità : 
Base nubi : 
>= 8 km
>= 3000ft
5 / 8 km
1000 / 3000 ft
1500m / 5 km
500 / 1000 ft
800 / 1500m
200 / 500 ft
< 800m
< 200 ft
Simboli :   Temporali  Nebbia  Neve Forte  Precipitazioni Forti  Vento > 20 kt
SIGMETs :   Varie  Temporali  Ghiacco  Turbolenza  Onda orograficha  Ceneri Vulcaniche







- Altitudine del aeroporto : 13 ft
- Codice IATA : CEQ
- Carte del aeroporto


LFMD - Cannes Mandelieu

ULTIMO METAR :
  • 192330Z AUTO 02003KT 350V050 CAVOK 18/11 Q1012

METARs OBSOLETI :
  • 192300Z AUTO 36003KT 340V040 CAVOK 18/11 Q1012
  • 192230Z AUTO 01003KT 340V040 CAVOK 19/12 Q1012
  • 192200Z AUTO 35003KT CAVOK 19/12 Q1012
  • 192130Z AUTO VRB02KT CAVOK 20/11 Q1012
  • 192100Z AUTO 36003KT CAVOK 21/12 Q1012 NOSIG

TAF TAF LFMD
Valido dal 19 a 15 ore il 20 a 15 ore UTC


191400Z 1915/2015 17010KT 9999 FEW023
BECMG 1919/1921 VRB03KT
PROB40
TEMPO 2001/2006 BKN010
BECMG 2007/2009 16008KT
TEMPO 2012/2015 FEW020
ATIS : +33 4 93 48 73 23
Nessun NOTAM noto per questo aeroporto.



MetMap, La meteo Aeronautica in un colpo d'occhio ! - Copyright ORBIFLY Dicembre 2007 - Disclaimer

ORBIFLY MET'MAP TEAM :

Programmazione e sviluppo : Alexandra Zaïnal
Concezione e sviluppo : Baudouin d'Aumeries
Co-Programmazione e sviluppo : Marc-Olivier Méhu
Supporto tecnico e logistico : Manuel Goepfert
Aiuto per la traduzione : Arnaldo La Scala

Contatto : metmap@orbifly.com




FONTI E CREDITI :

   NOAA